Latest Coastal Weather Observations for Point Fawcett

IDD60701

Issued at 6:01 am CST Tuesday 27 January 2015 (issued every 10 minutes, with the page automatically refreshed every 10 minutes)

About coastal observations | Map of coastal stations | Coastal observations for NT | Marine services | Other Formats
Station Details ID: 200731 Name: POINT FAWCETT Lat: -11.76 Lon: 130.03 Height: 6.5 m
Data from the previous 72 hours. | See also: Recent months at Point Fawcett
Date/Time
CST
Temp

°C
Wind Pressure Rain
since 9am
mm
Weather Cloud Vis
km
Sea
Height
m
Swell
Dir
 
Speed
knots
Gust
knots
hPa Trend Height
m
Period
s
Dir
27/06:00am 28.4 W 12 15 1006.2 - - - - - - - - -
27/05:30am 28.2 W 13 16 1005.7 - - - - - - - - -
27/05:00am 28.2 W 13 17 1005.7 - - - - - - - - -
27/04:30am 28.3 W 14 19 1005.7 - - - - - - - - -
27/04:00am 27.5 W 12 15 1005.7 - - - - - - - - -
27/03:30am 26.6 W 14 20 1005.9 - - - - - - - - -
27/03:00am 26.3 WNW 18 25 1005.9 - - - - - - - - -
27/02:55am 26.2 W 15 25 1006.1 - - - - - - - - -
27/02:30am 28.3 WNW 12 14 1006.3 - - - - - - - - -
27/02:00am 28.2 W 11 13 1006.9 - - - - - - - - -
27/01:30am 28.0 W 10 13 1007.2 - - - - - - - - -
27/01:00am 27.9 W 10 13 1007.4 - - - - - - - - -
27/12:30am 28.1 WSW 8 12 1008.0 - - - - - - - - -
27/12:00am 27.8 WSW 8 11 1008.3 - - - - - - - - -
 
Date/Time
CST
Temp

°C
Wind Pressure Rain
since 9am
mm
Weather Cloud Vis
km
Sea
Height
m
Swell
Dir
 
Speed
knots
Gust
knots
hPa Trend Height
m
Period
s
Dir
26/11:30pm 27.5 WSW 7 10 1008.8 - - - - - - - - -
26/11:00pm 27.0 SW 6 9 1008.7 - - - - - - - - -
26/10:30pm 26.7 SSW 6 9 1008.6 - - - - - - - - -
26/10:00pm 26.6 SW 8 11 1008.6 - - - - - - - - -
26/09:30pm 26.4 SW 7 11 1008.4 - - - - - - - - -
26/09:00pm 26.2 SW 7 10 1007.8 - - - - - - - - -
26/08:30pm 26.7 WSW 11 15 1007.7 - - - - - - - - -
26/08:00pm 27.3 W 7 11 1007.3 - - - - - - - - -
26/07:30pm 27.2 W 9 11 1006.9 - - - - - - - - -
26/07:00pm 26.7 W 6 8 1006.5 - - - - - - - - -
26/06:30pm 26.6 SSW 5 8 1006.6 - - - - - - - - -
26/06:00pm 27.1 S 7 13 1006.5 - - - - - - - - -
26/05:30pm 27.9 SSW 10 16 1006.6 - - - - - - - - -
26/05:00pm 29.6 W 14 19 1006.4 - - - - - - - - -
26/04:30pm 29.5 W 14 17 1006.3 - - - - - - - - -
26/04:00pm 29.6 W 13 17 1006.1 - - - - - - - - -
26/03:30pm 30.1 W 12 16 1006.3 - - - - - - - - -
26/03:00pm 30.1 W 11 15 1006.5 - - - - - - - - -
26/02:30pm 28.7 W 17 23 1007.1 - - - - - - - - -
26/02:00pm 29.2 W 15 21 1007.6 - - - - - - - - -
26/01:30pm 31.0 W 13 16 1007.8 - - - - - - - - -
26/01:00pm 31.6 W 13 17 1008.2 - - - - - - - - -
26/12:30pm 30.9 W 12 16 1008.6 - - - - - - - - -
26/12:00pm 30.4 WNW 10 13 1008.8 - - - - - - - - -
26/11:30am 31.2 WNW 11 13 1009.1 - - - - - - - - -
26/11:00am 30.6 W 11 13 1009.3 - - - - - - - - -
26/10:30am 30.1 W 11 13 1009.3 - - - - - - - - -
26/10:00am 30.8 W 10 13 1009.4 - - - - - - - - -
26/09:30am 30.0 W 9 12 1009.1 - - - - - - - - -
26/09:00am 30.0 W 9 11 1009.0 - - - - - - - - -
26/08:30am 29.3 W 11 14 1009.1 - - - - - - - - -
26/08:00am 29.0 W 12 15 1009.3 - - - - - - - - -
26/07:30am 28.7 W 11 15 1009.1 - - - - - - - - -
26/07:00am 28.6 WNW 11 14 1008.8 - - - - - - - - -
26/06:30am 28.6 WNW 12 14 1008.7 - - - - - - - - -
26/06:00am 28.5 WNW 12 14 1008.5 - - - - - - - - -
26/05:30am 28.4 WNW 12 15 1008.3 - - - - - - - - -
26/05:00am 28.5 WNW 11 13 1007.9 - - - - - - - - -
26/04:30am 28.4 WNW 10 13 1007.5 - - - - - - - - -
26/04:00am 28.4 WNW 10 11 1007.4 - - - - - - - - -
26/03:30am 28.3 W 9 11 1007.3 - - - - - - - - -
26/03:00am 28.4 W 11 14 1007.3 - - - - - - - - -
26/02:30am 28.5 W 10 12 1007.6 - - - - - - - - -
26/02:00am 28.4 W 10 13 1008.1 - - - - - - - - -
26/01:30am 28.6 W 10 13 1008.7 - - - - - - - - -
26/01:00am 28.6 W 10 13 1009.0 - - - - - - - - -
26/12:30am 28.6 W 9 13 1009.1 - - - - - - - - -
26/12:00am 28.6 W 10 13 1009.3 - - - - - - - - -
 
Date/Time
CST
Temp

°C
Wind Pressure Rain
since 9am
mm
Weather Cloud Vis
km
Sea
Height
m
Swell
Dir
 
Speed
knots
Gust
knots
hPa Trend Height
m
Period
s
Dir
25/11:30pm 28.8 W 9 12 1009.5 - - - - - - - - -
25/11:00pm 28.7 W 9 13 1009.3 - - - - - - - - -
25/10:30pm 28.8 W 9 13 1009.1 - - - - - - - - -
25/10:00pm 28.8 WSW 10 14 1009.1 - - - - - - - - -
25/09:30pm 28.4 W 9 13 1009.1 - - - - - - - - -
25/09:00pm 28.7 WSW 8 13 1008.5 - - - - - - - - -
25/08:30pm 27.6 SSW 8 18 1008.7 - - - - - - - - -
25/08:00pm 29.2 W 12 15 1008.2 - - - - - - - - -
25/07:30pm 29.1 W 11 14 1008.0 - - - - - - - - -
25/07:00pm 29.2 W 11 14 1007.7 - - - - - - - - -
25/06:30pm 29.8 W 11 15 1007.5 - - - - - - - - -
25/06:00pm 30.3 W 11 14 1007.1 - - - - - - - - -
25/05:30pm 30.1 W 12 15 1007.0 - - - - - - - - -
25/05:00pm 30.3 W 13 18 1007.0 - - - - - - - - -
25/04:30pm 30.4 W 12 16 1006.9 - - - - - - - - -
25/04:00pm 29.8 W 10 14 1007.4 - - - - - - - - -
25/03:30pm 30.2 WNW 10 13 1007.8 - - - - - - - - -
25/03:00pm 30.5 W 8 11 1007.9 - - - - - - - - -
25/02:30pm 30.8 W 10 12 1008.6 - - - - - - - - -
25/02:00pm 30.4 W 11 13 1008.9 - - - - - - - - -
25/01:30pm 30.4 W 10 13 1009.0 - - - - - - - - -
25/01:00pm 30.9 WNW 12 14 1009.1 - - - - - - - - -
25/12:30pm 31.3 WNW 12 14 1009.2 - - - - - - - - -
25/12:00pm 31.2 WNW 12 15 1009.5 - - - - - - - - -
25/11:30am 30.9 WNW 11 13 1010.1 - - - - - - - - -
25/11:00am 30.5 WNW 10 13 1010.7 - - - - - - - - -
25/10:30am 30.7 WNW 10 13 1010.7 - - - - - - - - -
25/10:00am 30.4 WNW 11 13 1010.3 - - - - - - - - -
25/09:30am 29.9 WNW 11 13 1010.2 - - - - - - - - -
25/09:00am 29.2 WNW 9 12 1010.0 - - - - - - - - -
25/08:30am 29.4 WNW 11 14 1009.6 - - - - - - - - -
25/08:00am 28.8 WNW 12 14 1009.2 - - - - - - - - -
25/07:30am 28.6 WNW 12 14 1009.0 - - - - - - - - -
25/07:00am 28.6 W 13 15 1008.2 - - - - - - - - -
25/06:30am 28.6 W 12 16 1007.7 - - - - - - - - -
25/06:00am 28.4 WNW 10 13 1007.4 - - - - - - - - -
25/05:30am 28.6 WNW 10 12 1007.7 - - - - - - - - -
25/05:00am 28.5 W 7 9 1008.0 - - - - - - - - -
25/04:30am 28.6 WNW 10 13 1008.1 - - - - - - - - -
25/04:00am 28.7 WNW 12 15 1007.9 - - - - - - - - -
25/03:30am 28.5 WNW 13 15 1007.6 - - - - - - - - -
25/03:00am 28.3 WNW 12 15 1007.3 - - - - - - - - -
25/02:30am 28.5 WNW 11 13 1007.6 - - - - - - - - -
25/02:00am 28.4 NW 8 11 1008.2 - - - - - - - - -
25/01:30am 28.4 WNW 11 13 1007.9 - - - - - - - - -
25/01:00am 28.3 W 11 15 1008.2 - - - - - - - - -
25/12:00am 27.9 W 12 15 1009.0 - - - - - - - - -
 
Date/Time
CST
Temp

°C
Wind Pressure Rain
since 9am
mm
Weather Cloud Vis
km
Sea
Height
m
Swell
Dir
 
Speed
knots
Gust
knots
hPa Trend Height
m
Period
s
Dir
24/11:30pm 28.3 W 10 13 1009.4 - - - - - - - - -
24/11:00pm 27.8 WNW 10 13 1009.4 - - - - - - - - -
24/10:30pm 28.3 WNW 12 15 1009.0 - - - - - - - - -
24/10:00pm 28.1 W 11 14 1009.1 - - - - - - - - -
24/09:30pm 25.5 SSW 1 7 1009.0 - - - - - - - - -
24/09:00pm 25.5 CALM 0 3 1008.5 - - - - - - - - -
24/08:30pm 25.7 WSW 4 5 1008.5 - - - - - - - - -
24/08:00pm 26.2 W 5 6 1008.1 - - - - - - - - -
24/07:30pm 27.0 W 10 17 1007.6 - - - - - - - - -
24/07:00pm 27.0 WNW 13 18 1006.7 - - - - - - - - -
24/06:30pm 26.3 W 7 10 1006.5 - - - - - - - - -
24/06:00pm 24.3 S 4 7 1006.9 - - - - - - - - -
24/05:30pm 23.8 SSE 5 8 1006.5 - - - - - - - - -
24/05:00pm 22.8 SE 7 9 1006.4 - - - - - - - - -
24/04:30pm 22.9 ESE 10 16 1006.4 - - - - - - - - -
24/04:00pm 23.0 ENE 8 20 1006.5 - - - - - - - - -
24/03:30pm 25.3 NNE 9 17 1006.6 - - - - - - - - -
24/03:00pm 27.1 N 17 25 1006.3 - - - - - - - - -
24/02:30pm 28.6 NW 12 15 1006.5 - - - - - - - - -
24/02:00pm 29.5 W 13 17 1006.6 - - - - - - - - -
24/01:30pm 29.6 W 12 16 1006.9 - - - - - - - - -
24/01:00pm 30.1 W 11 15 1007.0 - - - - - - - - -
24/12:30pm 30.3 W 11 14 1007.1 - - - - - - - - -
24/12:00pm 30.8 W 10 13 1007.4 - - - - - - - - -
24/11:30am 30.5 WSW 9 11 1007.8 - - - - - - - - -
24/11:00am 30.3 WSW 9 13 1007.7 - - - - - - - - -
24/10:30am 30.3 W 9 12 1008.2 - - - - - - - - -
24/10:00am 30.6 W 11 14 1008.5 - - - - - - - - -
24/09:30am 30.4 WSW 11 16 1008.2 - - - - - - - - -
24/09:00am 29.3 WSW 12 16 1007.8 - - - - - - - - -
24/08:30am 29.0 W 12 16 1007.4 - - - - - - - - -
24/08:00am 29.0 WSW 12 17 1007.1 - - - - - - - - -
24/07:30am 28.8 WSW 13 19 1006.9 - - - - - - - - -
24/07:00am 28.7 WSW 13 17 1006.7 - - - - - - - - -
24/06:30am 28.8 WSW 14 19 1006.2 - - - - - - - - -

Other Formats:

Comma delimited format used in spreadsheet applications
http://www.bom.gov.au/fwo/IDD60701/IDD60701.94122.axf

JavaScript Object Notation format (JSON) in row-major order
http://www.bom.gov.au/fwo/IDD60701/IDD60701.94122.json